Montreal, Canada
Current Conditions -  °F | °C
As of 6:00 AM on Thursday 27 Nov 2014 (Local Time) from CYHU Reporting Station
Overcast Overcast  
Wind Chill: 20°   Ceiling: 3200
Heat Index: 28°   Visibility: 9mi
Dew Point: 19°   Wind: 9mph
Humidity: 69%   Direction: 10°N
Pressure: 30"   Gusts: NA
Location:  45.51°N, 73.55°W
Report Text: CYHU 271100Z AUTO 01008KT 9SM OVC032 M02/M07 A3000 RMK SLP160
Loading
Personal Weather Stations






























Interactive Weather Map New forecast layout! Learn more

10-Day Weather Forecast

Advertisements
Track Severe Weather on mobile